sensor_id;sensor_type;location;lat;lon;timestamp;pressure;altitude;pressure_sealevel;temperature;humidity
40384;BME280;26097;42.366;23.818;2023-08-07T00:02:03;93477.34;;;15.89;100.00
40384;BME280;26097;42.366;23.818;2023-08-07T00:05:18;93491.59;;;15.78;100.00
40384;BME280;26097;42.366;23.818;2023-08-07T00:08:18;93500.81;;;15.74;100.00
40384;BME280;26097;42.366;23.818;2023-08-07T00:11:17;93503.91;;;15.61;100.00
40384;BME280;26097;42.366;23.818;2023-08-07T00:14:16;93504.88;;;15.51;100.00
40384;BME280;26097;42.366;23.818;2023-08-07T00:17:16;93506.50;;;15.44;100.00
40384;BME280;26097;42.366;23.818;2023-08-07T00:20:16;93495.34;;;15.50;100.00
40384;BME280;26097;42.366;23.818;2023-08-07T00:23:15;93506.50;;;15.52;100.00
40384;BME280;26097;42.366;23.818;2023-08-07T00:26:15;93500.91;;;15.47;100.00
40384;BME280;26097;42.366;23.818;2023-08-07T00:29:15;93493.03;;;15.47;100.00
40384;BME280;26097;42.366;23.818;2023-08-07T00:32:14;93502.88;;;15.45;100.00
40384;BME280;26097;42.366;23.818;2023-08-07T00:35:14;93495.19;;;15.44;100.00
40384;BME280;26097;42.366;23.818;2023-08-07T00:38:13;93490.41;;;15.47;100.00
40384;BME280;26097;42.366;23.818;2023-08-07T00:41:12;93491.25;;;15.56;100.00
40384;BME280;26097;42.366;23.818;2023-08-07T00:44:12;93489.13;;;15.60;100.00
40384;BME280;26097;42.366;23.818;2023-08-07T00:47:12;93485.53;;;15.61;100.00
40384;BME280;26097;42.366;23.818;2023-08-07T00:50:12;93495.69;;;15.55;100.00
40384;BME280;26097;42.366;23.818;2023-08-07T00:53:11;93502.75;;;15.47;100.00
40384;BME280;26097;42.366;23.818;2023-08-07T00:56:11;93496.66;;;15.38;100.00
40384;BME280;26097;42.366;23.818;2023-08-07T00:59:11;93501.19;;;15.19;100.00
40384;BME280;26097;42.366;23.818;2023-08-07T01:02:11;93500.00;;;15.13;100.00
40384;BME280;26097;42.366;23.818;2023-08-07T01:05:12;93494.91;;;15.04;100.00
40384;BME280;26097;42.366;23.818;2023-08-07T01:08:12;93504.06;;;14.99;100.00
40384;BME280;26097;42.366;23.818;2023-08-07T01:11:34;93503.72;;;14.94;100.00
40384;BME280;26097;42.366;23.818;2023-08-07T01:17:35;93518.19;;;14.98;100.00
40384;BME280;26097;42.366;23.818;2023-08-07T01:20:34;93515.06;;;15.03;100.00
40384;BME280;26097;42.366;23.818;2023-08-07T01:23:34;93513.81;;;15.16;100.00
40384;BME280;26097;42.366;23.818;2023-08-07T01:26:34;93509.06;;;15.19;100.00
40384;BME280;26097;42.366;23.818;2023-08-07T01:29:42;93522.34;;;15.18;100.00
40384;BME280;26097;42.366;23.818;2023-08-07T01:33:31;93529.03;;;15.12;100.00
40384;BME280;26097;42.366;23.818;2023-08-07T01:36:32;93528.03;;;15.05;100.00
40384;BME280;26097;42.366;23.818;2023-08-07T01:39:33;93526.00;;;14.90;100.00
40384;BME280;26097;42.366;23.818;2023-08-07T01:42:34;93523.88;;;14.94;100.00
40384;BME280;26097;42.366;23.818;2023-08-07T01:45:34;93528.66;;;14.98;100.00
40384;BME280;26097;42.366;23.818;2023-08-07T01:48:33;93535.25;;;15.03;100.00
40384;BME280;26097;42.366;23.818;2023-08-07T01:51:33;93530.81;;;15.03;100.00
40384;BME280;26097;42.366;23.818;2023-08-07T01:54:32;93538.50;;;14.96;100.00
40384;BME280;26097;42.366;23.818;2023-08-07T01:57:31;93537.84;;;14.94;100.00
40384;BME280;26097;42.366;23.818;2023-08-07T02:00:31;93539.50;;;14.95;100.00
40384;BME280;26097;42.366;23.818;2023-08-07T02:03:31;93545.72;;;14.94;100.00
40384;BME280;26097;42.366;23.818;2023-08-07T02:06:30;93548.03;;;14.97;100.00
40384;BME280;26097;42.366;23.818;2023-08-07T02:09:29;93543.25;;;15.01;100.00
40384;BME280;26097;42.366;23.818;2023-08-07T02:12:29;93548.50;;;15.01;100.00
40384;BME280;26097;42.366;23.818;2023-08-07T02:15:31;93549.97;;;14.95;100.00
40384;BME280;26097;42.366;23.818;2023-08-07T02:18:30;93546.84;;;14.92;100.00
40384;BME280;26097;42.366;23.818;2023-08-07T02:21:31;93550.38;;;14.82;100.00
40384;BME280;26097;42.366;23.818;2023-08-07T02:24:31;93562.84;;;14.80;100.00
40384;BME280;26097;42.366;23.818;2023-08-07T02:27:30;93566.22;;;14.73;100.00
40384;BME280;26097;42.366;23.818;2023-08-07T02:30:30;93574.81;;;14.75;100.00
40384;BME280;26097;42.366;23.818;2023-08-07T02:33:30;93573.13;;;14.74;100.00
40384;BME280;26097;42.366;23.818;2023-08-07T02:36:29;93571.75;;;14.69;100.00
40384;BME280;26097;42.366;23.818;2023-08-07T02:39:28;93577.19;;;14.68;100.00
40384;BME280;26097;42.366;23.818;2023-08-07T02:42:28;93569.31;;;14.68;100.00
40384;BME280;26097;42.366;23.818;2023-08-07T02:45:27;93573.97;;;14.74;100.00
40384;BME280;26097;42.366;23.818;2023-08-07T02:48:27;93573.13;;;14.74;100.00
40384;BME280;26097;42.366;23.818;2023-08-07T02:51:26;93575.59;;;14.75;100.00
40384;BME280;26097;42.366;23.818;2023-08-07T02:54:25;93573.97;;;14.74;100.00
40384;BME280;26097;42.366;23.818;2023-08-07T02:57:25;93585.28;;;14.75;100.00
40384;BME280;26097;42.366;23.818;2023-08-07T03:00:24;93583.16;;;14.78;100.00
40384;BME280;26097;42.366;23.818;2023-08-07T03:03:24;93574.63;;;14.76;100.00
40384;BME280;26097;42.366;23.818;2023-08-07T03:06:23;93579.06;;;14.76;100.00
40384;BME280;26097;42.366;23.818;2023-08-07T03:09:23;93576.59;;;14.74;100.00
40384;BME280;26097;42.366;23.818;2023-08-07T03:12:22;93585.97;;;14.77;100.00
40384;BME280;26097;42.366;23.818;2023-08-07T03:15:21;93583.34;;;14.77;100.00
40384;BME280;26097;42.366;23.818;2023-08-07T03:18:21;93584.44;;;14.74;100.00
40384;BME280;26097;42.366;23.818;2023-08-07T03:21:20;93594.56;;;14.69;100.00
40384;BME280;26097;42.366;23.818;2023-08-07T03:24:19;93592.75;;;14.69;100.00
40384;BME280;26097;42.366;23.818;2023-08-07T03:27:19;93597.78;;;14.63;100.00
40384;BME280;26097;42.366;23.818;2023-08-07T03:30:19;93604.66;;;14.64;100.00
40384;BME280;26097;42.366;23.818;2023-08-07T03:33:18;93602.75;;;14.66;100.00
40384;BME280;26097;42.366;23.818;2023-08-07T03:36:17;93602.97;;;14.73;100.00
40384;BME280;26097;42.366;23.818;2023-08-07T03:39:17;93611.81;;;14.71;100.00
40384;BME280;26097;42.366;23.818;2023-08-07T03:42:17;93616.91;;;14.73;100.00
40384;BME280;26097;42.366;23.818;2023-08-07T03:45:16;93602.38;;;14.79;100.00
40384;BME280;26097;42.366;23.818;2023-08-07T03:48:16;93613.53;;;14.81;100.00
40384;BME280;26097;42.366;23.818;2023-08-07T03:51:15;93610.59;;;14.84;100.00
40384;BME280;26097;42.366;23.818;2023-08-07T03:54:15;93604.00;;;14.80;100.00
40384;BME280;26097;42.366;23.818;2023-08-07T03:57:15;93605.78;;;14.79;100.00
40384;BME280;26097;42.366;23.818;2023-08-07T04:00:14;93600.09;;;14.84;100.00
40384;BME280;26097;42.366;23.818;2023-08-07T04:03:14;93600.75;;;14.86;100.00
40384;BME280;26097;42.366;23.818;2023-08-07T04:06:13;93602.47;;;14.95;100.00
40384;BME280;26097;42.366;23.818;2023-08-07T04:09:15;93603.78;;;14.99;100.00
40384;BME280;26097;42.366;23.818;2023-08-07T04:12:16;93602.34;;;15.05;100.00
40384;BME280;26097;42.366;23.818;2023-08-07T04:15:15;93606.13;;;15.11;100.00
40384;BME280;26097;42.366;23.818;2023-08-07T04:18:14;93605.84;;;15.14;100.00
40384;BME280;26097;42.366;23.818;2023-08-07T04:21:14;93609.47;;;15.21;100.00
40384;BME280;26097;42.366;23.818;2023-08-07T04:24:13;93613.78;;;15.31;100.00
40384;BME280;26097;42.366;23.818;2023-08-07T04:27:13;93618.75;;;15.34;100.00
40384;BME280;26097;42.366;23.818;2023-08-07T04:30:12;93611.53;;;15.44;100.00
40384;BME280;26097;42.366;23.818;2023-08-07T04:33:11;93620.09;;;15.46;100.00
40384;BME280;26097;42.366;23.818;2023-08-07T04:36:11;93621.13;;;15.53;100.00
40384;BME280;26097;42.366;23.818;2023-08-07T04:39:11;93621.59;;;15.57;100.00
40384;BME280;26097;42.366;23.818;2023-08-07T04:42:12;93626.06;;;15.65;100.00
40384;BME280;26097;42.366;23.818;2023-08-07T04:45:11;93630.00;;;15.69;100.00
40384;BME280;26097;42.366;23.818;2023-08-07T04:48:11;93629.22;;;15.77;100.00
40384;BME280;26097;42.366;23.818;2023-08-07T04:51:10;93633.69;;;15.84;100.00
40384;BME280;26097;42.366;23.818;2023-08-07T04:54:10;93636.53;;;15.91;100.00
40384;BME280;26097;42.366;23.818;2023-08-07T04:57:09;93638.50;;;15.97;100.00
40384;BME280;26097;42.366;23.818;2023-08-07T05:00:09;93641.97;;;16.06;100.00
40384;BME280;26097;42.366;23.818;2023-08-07T05:03:08;93634.13;;;16.15;100.00
40384;BME280;26097;42.366;23.818;2023-08-07T05:06:08;93628.84;;;16.23;100.00
40384;BME280;26097;42.366;23.818;2023-08-07T05:09:07;93640.69;;;16.19;100.00
40384;BME280;26097;42.366;23.818;2023-08-07T05:12:07;93640.88;;;16.25;100.00
40384;BME280;26097;42.366;23.818;2023-08-07T05:15:06;93642.69;;;16.33;100.00
40384;BME280;26097;42.366;23.818;2023-08-07T05:18:06;93637.94;;;16.45;100.00
40384;BME280;26097;42.366;23.818;2023-08-07T05:21:06;93641.72;;;16.51;100.00
40384;BME280;26097;42.366;23.818;2023-08-07T05:24:08;93636.78;;;16.64;100.00
40384;BME280;26097;42.366;23.818;2023-08-07T05:27:08;93643.84;;;16.80;100.00
40384;BME280;26097;42.366;23.818;2023-08-07T05:30:08;93640.22;;;16.81;100.00
40384;BME280;26097;42.366;23.818;2023-08-07T05:33:08;93633.78;;;16.84;100.00
40384;BME280;26097;42.366;23.818;2023-08-07T05:36:07;93645.13;;;16.93;100.00
40384;BME280;26097;42.366;23.818;2023-08-07T05:39:06;93632.81;;;17.10;100.00
40384;BME280;26097;42.366;23.818;2023-08-07T05:42:06;93627.50;;;17.26;100.00
40384;BME280;26097;42.366;23.818;2023-08-07T05:45:07;93634.69;;;17.49;100.00
40384;BME280;26097;42.366;23.818;2023-08-07T05:48:07;93641.00;;;17.72;100.00
40384;BME280;26097;42.366;23.818;2023-08-07T05:51:08;93641.78;;;17.89;100.00
40384;BME280;26097;42.366;23.818;2023-08-07T05:54:08;93625.88;;;18.05;100.00
40384;BME280;26097;42.366;23.818;2023-08-07T05:57:07;93628.59;;;18.20;100.00
40384;BME280;26097;42.366;23.818;2023-08-07T06:00:07;93629.00;;;18.32;100.00
40384;BME280;26097;42.366;23.818;2023-08-07T06:03:07;93633.88;;;18.44;100.00
40384;BME280;26097;42.366;23.818;2023-08-07T06:06:06;93634.75;;;18.59;100.00
40384;BME280;26097;42.366;23.818;2023-08-07T06:09:06;93624.69;;;18.78;100.00
40384;BME280;26097;42.366;23.818;2023-08-07T06:12:05;93637.47;;;18.89;100.00
40384;BME280;26097;42.366;23.818;2023-08-07T06:15:05;93633.09;;;18.96;100.00
40384;BME280;26097;42.366;23.818;2023-08-07T06:18:05;93634.88;;;19.04;100.00
40384;BME280;26097;42.366;23.818;2023-08-07T06:21:04;93631.88;;;19.22;100.00
40384;BME280;26097;42.366;23.818;2023-08-07T06:24:05;93633.84;;;19.29;100.00
40384;BME280;26097;42.366;23.818;2023-08-07T06:27:05;93635.00;;;19.26;100.00
40384;BME280;26097;42.366;23.818;2023-08-07T06:30:05;93634.91;;;19.19;100.00
40384;BME280;26097;42.366;23.818;2023-08-07T06:33:05;93635.09;;;19.33;100.00
40384;BME280;26097;42.366;23.818;2023-08-07T06:36:04;93635.09;;;19.33;100.00
40384;BME280;26097;42.366;23.818;2023-08-07T06:39:04;93655.22;;;19.34;100.00
40384;BME280;26097;42.366;23.818;2023-08-07T06:42:04;93658.56;;;19.12;100.00
40384;BME280;26097;42.366;23.818;2023-08-07T06:45:03;93654.13;;;19.13;100.00
40384;BME280;26097;42.366;23.818;2023-08-07T06:48:03;93652.50;;;19.42;100.00
40384;BME280;26097;42.366;23.818;2023-08-07T06:51:02;93669.28;;;19.49;100.00
40384;BME280;26097;42.366;23.818;2023-08-07T06:54:02;93679.84;;;19.49;100.00
40384;BME280;26097;42.366;23.818;2023-08-07T06:57:02;93676.28;;;19.42;97.63
40384;BME280;26097;42.366;23.818;2023-08-07T07:00:02;93675.84;;;19.53;98.36
40384;BME280;26097;42.366;23.818;2023-08-07T07:03:03;93670.28;;;19.78;97.21
40384;BME280;26097;42.366;23.818;2023-08-07T07:06:03;93678.28;;;19.85;97.99
40384;BME280;26097;42.366;23.818;2023-08-07T07:09:02;93681.88;;;20.07;96.10
40384;BME280;26097;42.366;23.818;2023-08-07T07:12:02;93678.94;;;20.02;95.57
40384;BME280;26097;42.366;23.818;2023-08-07T07:15:01;93684.69;;;20.06;91.21
40384;BME280;26097;42.366;23.818;2023-08-07T07:18:02;93685.66;;;20.20;90.63
40384;BME280;26097;42.366;23.818;2023-08-07T07:21:02;93680.75;;;20.17;86.50
40384;BME280;26097;42.366;23.818;2023-08-07T07:24:02;93672.97;;;20.30;86.68
40384;BME280;26097;42.366;23.818;2023-08-07T07:27:02;93670.09;;;20.47;81.38
40384;BME280;26097;42.366;23.818;2023-08-07T07:30:02;93679.03;;;20.46;80.63
40384;BME280;26097;42.366;23.818;2023-08-07T07:33:03;93679.16;;;20.59;79.83
40384;BME280;26097;42.366;23.818;2023-08-07T07:36:03;93675.81;;;20.50;76.69
40384;BME280;26097;42.366;23.818;2023-08-07T07:39:02;93693.34;;;20.73;76.31
40384;BME280;26097;42.366;23.818;2023-08-07T07:42:02;93683.34;;;20.90;76.56
40384;BME280;26097;42.366;23.818;2023-08-07T07:45:04;93687.22;;;21.16;75.89
40384;BME280;26097;42.366;23.818;2023-08-07T07:48:04;93678.88;;;21.48;73.72
40384;BME280;26097;42.366;23.818;2023-08-07T07:51:04;93688.13;;;21.59;73.63
40384;BME280;26097;42.366;23.818;2023-08-07T07:54:03;93688.34;;;21.57;72.47
40384;BME280;26097;42.366;23.818;2023-08-07T07:57:03;93683.78;;;21.73;68.08
40384;BME280;26097;42.366;23.818;2023-08-07T08:00:02;93683.03;;;21.86;67.83
40384;BME280;26097;42.366;23.818;2023-08-07T08:03:04;93678.34;;;21.88;67.37
40384;BME280;26097;42.366;23.818;2023-08-07T08:06:03;93669.59;;;21.94;66.48
40384;BME280;26097;42.366;23.818;2023-08-07T08:09:03;93667.94;;;21.93;67.30
40384;BME280;26097;42.366;23.818;2023-08-07T08:12:04;93660.34;;;22.32;66.10
40384;BME280;26097;42.366;23.818;2023-08-07T08:15:04;93659.91;;;22.21;65.76
40384;BME280;26097;42.366;23.818;2023-08-07T08:18:04;93649.88;;;22.17;66.21
40384;BME280;26097;42.366;23.818;2023-08-07T08:21:03;93648.69;;;22.26;67.41
40384;BME280;26097;42.366;23.818;2023-08-07T08:24:03;93638.31;;;22.45;66.72
40384;BME280;26097;42.366;23.818;2023-08-07T08:27:04;93661.88;;;22.68;63.31
40384;BME280;26097;42.366;23.818;2023-08-07T08:30:03;93649.44;;;22.82;64.32
40384;BME280;26097;42.366;23.818;2023-08-07T08:33:03;93639.84;;;23.08;63.27
40384;BME280;26097;42.366;23.818;2023-08-07T08:36:04;93640.66;;;23.15;63.63
40384;BME280;26097;42.366;23.818;2023-08-07T08:39:04;93638.38;;;23.46;60.50
40384;BME280;26097;42.366;23.818;2023-08-07T08:42:03;93640.25;;;23.38;59.89
40384;BME280;26097;42.366;23.818;2023-08-07T08:45:04;93631.84;;;23.42;58.97
40384;BME280;26097;42.366;23.818;2023-08-07T08:48:04;93644.09;;;23.63;57.72
40384;BME280;26097;42.366;23.818;2023-08-07T08:51:05;93652.28;;;23.61;59.11
40384;BME280;26097;42.366;23.818;2023-08-07T08:54:05;93652.09;;;23.49;58.97
40384;BME280;26097;42.366;23.818;2023-08-07T08:57:06;93651.00;;;23.77;58.34
40384;BME280;26097;42.366;23.818;2023-08-07T09:00:07;93650.59;;;23.80;57.32
40384;BME280;26097;42.366;23.818;2023-08-07T09:03:33;93640.44;;;23.37;57.76
40384;BME280;26097;42.366;23.818;2023-08-07T09:06:33;93646.53;;;23.58;59.15
40384;BME280;26097;42.366;23.818;2023-08-07T09:09:33;93645.13;;;23.55;57.84
40384;BME280;26097;42.366;23.818;2023-08-07T09:12:33;93626.66;;;23.80;58.14
40384;BME280;26097;42.366;23.818;2023-08-07T09:15:33;93638.25;;;23.93;57.36
40384;BME280;26097;42.366;23.818;2023-08-07T09:18:35;93625.78;;;24.00;56.69
40384;BME280;26097;42.366;23.818;2023-08-07T09:21:34;93622.97;;;24.34;55.05
40384;BME280;26097;42.366;23.818;2023-08-07T09:24:34;93616.56;;;24.74;54.66
40384;BME280;26097;42.366;23.818;2023-08-07T09:27:34;93616.47;;;24.55;51.98
40384;BME280;26097;42.366;23.818;2023-08-07T09:30:36;93616.00;;;24.33;52.42
40384;BME280;26097;42.366;23.818;2023-08-07T09:33:38;93610.38;;;24.48;51.31
40384;BME280;26097;42.366;23.818;2023-08-07T09:36:38;93614.47;;;24.83;52.25
40384;BME280;26097;42.366;23.818;2023-08-07T09:39:37;93610.19;;;25.07;49.65
40384;BME280;26097;42.366;23.818;2023-08-07T09:42:37;93603.03;;;25.51;49.74
40384;BME280;26097;42.366;23.818;2023-08-07T09:45:39;93607.00;;;25.42;49.21
40384;BME280;26097;42.366;23.818;2023-08-07T09:48:41;93607.63;;;25.19;49.15
40384;BME280;26097;42.366;23.818;2023-08-07T09:51:44;93596.38;;;24.91;47.90
40384;BME280;26097;42.366;23.818;2023-08-07T09:54:43;93610.09;;;25.20;46.77
40384;BME280;26097;42.366;23.818;2023-08-07T09:57:45;93597.34;;;25.22;46.99
40384;BME280;26097;42.366;23.818;2023-08-07T10:00:46;93607.19;;;25.22;47.29
40384;BME280;26097;42.366;23.818;2023-08-07T10:03:45;93599.72;;;25.31;47.29
40384;BME280;26097;42.366;23.818;2023-08-07T10:06:46;93612.72;;;25.46;46.68
40384;BME280;26097;42.366;23.818;2023-08-07T10:09:46;93591.06;;;25.35;45.39
40384;BME280;26097;42.366;23.818;2023-08-07T10:12:46;93592.00;;;25.48;45.78
40384;BME280;26097;42.366;23.818;2023-08-07T10:15:47;93589.53;;;26.02;45.39
40384;BME280;26097;42.366;23.818;2023-08-07T10:18:46;93591.63;;;26.00;44.45
40384;BME280;26097;42.366;23.818;2023-08-07T10:21:46;93600.22;;;25.84;44.98
40384;BME280;26097;42.366;23.818;2023-08-07T10:24:48;93614.38;;;25.84;43.55
40384;BME280;26097;42.366;23.818;2023-08-07T10:27:49;93605.53;;;25.46;44.04
40384;BME280;26097;42.366;23.818;2023-08-07T10:30:51;93592.34;;;25.70;43.83
40384;BME280;26097;42.366;23.818;2023-08-07T10:33:50;93590.13;;;26.04;43.68
40384;BME280;26097;42.366;23.818;2023-08-07T10:36:50;93586.34;;;26.43;43.48
40384;BME280;26097;42.366;23.818;2023-08-07T10:40:03;93595.00;;;26.26;42.12
40384;BME280;26097;42.366;23.818;2023-08-07T10:46:06;93587.16;;;26.43;41.82
40384;BME280;26097;42.366;23.818;2023-08-07T10:49:07;93572.44;;;26.52;42.93
40384;BME280;26097;42.366;23.818;2023-08-07T10:52:09;93579.97;;;26.44;42.75
40384;BME280;26097;42.366;23.818;2023-08-07T10:55:13;93574.91;;;26.54;42.85
40384;BME280;26097;42.366;23.818;2023-08-07T11:04:34;93571.28;;;27.27;40.80
40384;BME280;26097;42.366;23.818;2023-08-07T11:07:40;93579.81;;;26.81;41.50
40384;BME280;26097;42.366;23.818;2023-08-07T11:10:39;93568.31;;;26.80;41.53
40384;BME280;26097;42.366;23.818;2023-08-07T11:13:39;93563.09;;;26.74;40.69
40384;BME280;26097;42.366;23.818;2023-08-07T11:16:38;93571.66;;;26.33;40.40
40384;BME280;26097;42.366;23.818;2023-08-07T11:19:38;93553.38;;;26.61;40.80
40384;BME280;26097;42.366;23.818;2023-08-07T11:22:37;93564.28;;;27.37;39.89
40384;BME280;26097;42.366;23.818;2023-08-07T11:25:37;93552.56;;;27.15;40.17
40384;BME280;26097;42.366;23.818;2023-08-07T11:28:36;93566.75;;;27.39;40.21
40384;BME280;26097;42.366;23.818;2023-08-07T11:31:35;93552.91;;;27.18;39.64
40384;BME280;26097;42.366;23.818;2023-08-07T11:34:35;93549.75;;;27.09;39.92
40384;BME280;26097;42.366;23.818;2023-08-07T11:37:35;93550.78;;;27.44;39.68
40384;BME280;26097;42.366;23.818;2023-08-07T11:40:35;93543.72;;;27.14;39.43
40384;BME280;26097;42.366;23.818;2023-08-07T11:43:35;93546.84;;;27.35;39.91
40384;BME280;26097;42.366;23.818;2023-08-07T11:46:35;93531.69;;;27.76;39.75
40384;BME280;26097;42.366;23.818;2023-08-07T11:49:34;93529.41;;;28.26;39.25
40384;BME280;26097;42.366;23.818;2023-08-07T11:52:34;93550.28;;;28.12;37.87
40384;BME280;26097;42.366;23.818;2023-08-07T11:55:33;93554.16;;;28.04;38.29
40384;BME280;26097;42.366;23.818;2023-08-07T11:58:37;93538.41;;;28.20;38.36
40384;BME280;26097;42.366;23.818;2023-08-07T12:01:38;93539.31;;;28.26;37.26
40384;BME280;26097;42.366;23.818;2023-08-07T12:04:39;93537.28;;;28.04;38.42
40384;BME280;26097;42.366;23.818;2023-08-07T12:07:39;93535.00;;;27.84;37.84
40384;BME280;26097;42.366;23.818;2023-08-07T12:10:39;93522.75;;;28.29;38.17
40384;BME280;26097;42.366;23.818;2023-08-07T12:13:39;93536.31;;;28.10;37.48
40384;BME280;26097;42.366;23.818;2023-08-07T12:16:39;93524.53;;;26.93;39.39
40384;BME280;26097;42.366;23.818;2023-08-07T12:19:39;93512.06;;;26.21;41.24
40384;BME280;26097;42.366;23.818;2023-08-07T12:22:39;93503.25;;;26.02;41.76
40384;BME280;26097;42.366;23.818;2023-08-07T12:25:39;93512.78;;;26.83;39.94
40384;BME280;26097;42.366;23.818;2023-08-07T12:28:39;93511.66;;;27.67;38.31
40384;BME280;26097;42.366;23.818;2023-08-07T12:31:38;93508.88;;;28.03;38.62
40384;BME280;26097;42.366;23.818;2023-08-07T12:34:37;93502.66;;;28.60;38.06
40384;BME280;26097;42.366;23.818;2023-08-07T12:37:37;93515.56;;;28.63;37.51
40384;BME280;26097;42.366;23.818;2023-08-07T12:40:36;93517.28;;;28.70;37.42
40384;BME280;26097;42.366;23.818;2023-08-07T12:43:36;93509.81;;;28.89;37.30
40384;BME280;26097;42.366;23.818;2023-08-07T12:46:35;93513.34;;;29.29;36.56
40384;BME280;26097;42.366;23.818;2023-08-07T12:49:37;93511.69;;;28.88;36.59
40384;BME280;26097;42.366;23.818;2023-08-07T12:52:36;93525.91;;;28.72;35.85
40384;BME280;26097;42.366;23.818;2023-08-07T12:55:36;93526.09;;;28.99;36.31
40384;BME280;26097;42.366;23.818;2023-08-07T12:58:35;93520.09;;;29.31;36.32
40384;BME280;26097;42.366;23.818;2023-08-07T13:01:34;93533.72;;;29.07;35.21
40384;BME280;26097;42.366;23.818;2023-08-07T13:04:34;93518.44;;;28.91;36.26
40384;BME280;26097;42.366;23.818;2023-08-07T13:07:33;93529.88;;;29.20;35.11
40384;BME280;26097;42.366;23.818;2023-08-07T13:10:33;93534.75;;;29.63;35.75
40384;BME280;26097;42.366;23.818;2023-08-07T13:13:32;93517.53;;;29.81;35.45
40384;BME280;26097;42.366;23.818;2023-08-07T13:16:31;93525.75;;;30.19;35.09
40384;BME280;26097;42.366;23.818;2023-08-07T13:19:31;93523.09;;;29.18;35.78
40384;BME280;26097;42.366;23.818;2023-08-07T13:22:30;93519.28;;;29.70;35.18
40384;BME280;26097;42.366;23.818;2023-08-07T13:25:30;93523.97;;;29.80;35.13
40384;BME280;26097;42.366;23.818;2023-08-07T13:28:29;93509.78;;;29.06;36.10
40384;BME280;26097;42.366;23.818;2023-08-07T13:31:29;93518.13;;;28.24;37.73
40384;BME280;26097;42.366;23.818;2023-08-07T13:34:28;93520.25;;;27.69;38.88
40384;BME280;26097;42.366;23.818;2023-08-07T13:37:27;93507.25;;;27.61;39.07
40384;BME280;26097;42.366;23.818;2023-08-07T13:40:27;93512.75;;;27.95;39.21
40384;BME280;26097;42.366;23.818;2023-08-07T13:43:26;93523.81;;;27.34;40.50
40384;BME280;26097;42.366;23.818;2023-08-07T13:46:26;93517.53;;;28.22;39.27
40384;BME280;26097;42.366;23.818;2023-08-07T13:49:25;93513.94;;;27.22;40.64
40384;BME280;26097;42.366;23.818;2023-08-07T13:52:25;93517.09;;;26.96;41.26
40384;BME280;26097;42.366;23.818;2023-08-07T13:55:24;93515.41;;;27.42;41.27
40384;BME280;26097;42.366;23.818;2023-08-07T13:58:23;93525.97;;;26.65;42.01
40384;BME280;26097;42.366;23.818;2023-08-07T14:01:23;93525.75;;;26.55;42.93
40384;BME280;26097;42.366;23.818;2023-08-07T14:04:22;93524.84;;;26.19;42.59
40384;BME280;26097;42.366;23.818;2023-08-07T14:07:22;93517.91;;;25.99;43.13
40384;BME280;26097;42.366;23.818;2023-08-07T14:10:21;93534.66;;;25.88;43.68
40384;BME280;26097;42.366;23.818;2023-08-07T14:13:21;93534.91;;;25.86;43.77
40384;BME280;26097;42.366;23.818;2023-08-07T14:16:20;93534.06;;;25.86;44.69
40384;BME280;26097;42.366;23.818;2023-08-07T14:19:21;93539.22;;;25.69;44.36
40384;BME280;26097;42.366;23.818;2023-08-07T14:22:20;93534.53;;;25.83;44.79
40384;BME280;26097;42.366;23.818;2023-08-07T14:25:19;93530.47;;;26.10;43.78
40384;BME280;26097;42.366;23.818;2023-08-07T14:28:22;93525.66;;;26.74;43.03
40384;BME280;26097;42.366;23.818;2023-08-07T14:31:21;93519.03;;;26.22;43.96
40384;BME280;26097;42.366;23.818;2023-08-07T14:34:21;93525.16;;;25.92;44.55
40384;BME280;26097;42.366;23.818;2023-08-07T14:37:20;93533.13;;;25.80;44.99
40384;BME280;26097;42.366;23.818;2023-08-07T14:40:20;93542.81;;;25.93;44.89
40384;BME280;26097;42.366;23.818;2023-08-07T14:43:19;93534.31;;;26.15;44.83
40384;BME280;26097;42.366;23.818;2023-08-07T14:46:19;93537.69;;;26.41;44.60
40384;BME280;26097;42.366;23.818;2023-08-07T14:49:19;93530.22;;;26.31;44.90
40384;BME280;26097;42.366;23.818;2023-08-07T14:52:18;93535.03;;;26.64;43.81
40384;BME280;26097;42.366;23.818;2023-08-07T14:55:18;93531.97;;;27.15;43.66
40384;BME280;26097;42.366;23.818;2023-08-07T14:58:17;93531.81;;;26.74;43.62
40384;BME280;26097;42.366;23.818;2023-08-07T15:01:17;93528.16;;;26.45;44.52
40384;BME280;26097;42.366;23.818;2023-08-07T15:04:16;93526.00;;;26.23;45.30
40384;BME280;26097;42.366;23.818;2023-08-07T15:07:16;93526.97;;;26.10;45.34
40384;BME280;26097;42.366;23.818;2023-08-07T15:10:15;93519.34;;;25.64;46.28
40384;BME280;26097;42.366;23.818;2023-08-07T15:13:14;93531.44;;;25.67;46.30
40384;BME280;26097;42.366;23.818;2023-08-07T15:16:14;93527.28;;;25.52;47.22
40384;BME280;26097;42.366;23.818;2023-08-07T15:19:13;93525.34;;;25.41;47.43
40384;BME280;26097;42.366;23.818;2023-08-07T15:22:13;93532.31;;;25.42;47.66
40384;BME280;26097;42.366;23.818;2023-08-07T15:25:12;93542.66;;;25.32;49.01
40384;BME280;26097;42.366;23.818;2023-08-07T15:28:12;93543.88;;;25.36;48.92
40384;BME280;26097;42.366;23.818;2023-08-07T15:31:11;93540.06;;;25.44;48.76
40384;BME280;26097;42.366;23.818;2023-08-07T15:34:10;93536.22;;;25.95;48.26
40384;BME280;26097;42.366;23.818;2023-08-07T15:37:10;93528.84;;;25.60;48.93
40384;BME280;26097;42.366;23.818;2023-08-07T15:40:09;93549.41;;;25.16;50.50
40384;BME280;26097;42.366;23.818;2023-08-07T15:43:09;93550.38;;;25.21;50.61
40384;BME280;26097;42.366;23.818;2023-08-07T15:46:11;93544.69;;;24.92;51.36
40384;BME280;26097;42.366;23.818;2023-08-07T15:49:11;93547.41;;;25.30;49.81